ADDS METAR Data INFO
IDs: Format: Raw Decoded Include TAF

Data at: 0351 UTC 18 Oct 2017

KCCO 180335Z AUTO 07004KT 10SM CLR 12/09 A3029 RMK AO2 T01200085
KCCO 180315Z AUTO 08004KT 10SM CLR 12/09 A3029 RMK AO2 T01220086
KCCO 180255Z AUTO 09004KT 10SM CLR 13/09 A3029 RMK AO2 T01280085
KCCO 180235Z AUTO 10006KT 10SM CLR 13/09 A3028 RMK AO2 T01300087
KCCO 180215Z AUTO 10005KT 10SM CLR 13/09 A3028 RMK AO2 T01280089
KCCO 180155Z AUTO 11004KT 10SM CLR 12/09 A3028 RMK AO2 T01200092
KCCO 180135Z AUTO 11004KT 10SM CLR 11/09 A3027 RMK AO2 T01120094
KCCO 180115Z AUTO 11003KT 10SM CLR 11/10 A3027 RMK AO2 T01140099
KCCO 180055Z AUTO 00000KT 10SM CLR 12/10 A3026 RMK AO2 T01200100
KCCO 180035Z AUTO 00000KT 10SM CLR 13/10 A3026 RMK AO2 T01300103
KCCO 180015Z AUTO 00000KT 10SM CLR 14/10 A3025 RMK AO2 T01360100
KCCO 172355Z AUTO 10003KT 10SM CLR 13/10 A3024 RMK AO2 T01330104 10206 20133
KCCO 172335Z AUTO 08003KT 10SM CLR 15/10 A3024 RMK AO2 T01460102
KCCO 172315Z AUTO 09003KT 10SM CLR 15/11 A3024 RMK AO2 T01490106
KCCO 172255Z AUTO 00000KT 10SM CLR 18/10 A3024 RMK AO2 T01750095
KCCO 172235Z AUTO 08003KT 10SM CLR 19/09 A3023 RMK AO2 T01870089
KCCO 172215Z AUTO 08003KT 10SM CLR 20/09 A3024 RMK AO2 T01950085
KCCO 172155Z AUTO 08004KT 10SM CLR 20/08 A3024 RMK AO2 T02000079
KCCO 172135Z AUTO 08004KT 10SM CLR 20/08 A3024 RMK AO2 T02020079
KCCO 172115Z AUTO 08005KT 10SM CLR 20/07 A3024 RMK AO2 T02020074
KCCO 172055Z AUTO 10008KT 10SM CLR 20/08 A3024 RMK AO2 T02040078
KCCO 172035Z AUTO 00000KT 10SM CLR 20/08 A3025 RMK AO2 T02020075
KCCO 172015Z AUTO 05007KT 010V100 10SM CLR 20/08 A3025 RMK AO2 T02010075
KCCO 171955Z AUTO 09006KT 10SM CLR 20/08 A3025 RMK AO2 T02020076
KCCO 171935Z AUTO 06008KT 010V080 10SM CLR 20/08 A3025 RMK AO2 T02020077
KCCO 171915Z AUTO 04006KT 10SM CLR 20/08 A3026 RMK AO2 T02040076
KCCO 171855Z AUTO 11007KT 10SM CLR 20/07 A3026 RMK AO2 T01960073
KCCO 171835Z AUTO 09008KT 10SM CLR 20/07 A3027 RMK AO2 T01970074
KCCO 171815Z AUTO 03005KT 10SM CLR 19/08 A3028 RMK AO2 T01940076
KCCO 171755Z AUTO 07009G14KT 030V100 10SM CLR 19/07 A3029 RMK AO2 T01850070 10189 20096
KCCO 171735Z AUTO 07004KT 10SM CLR 19/07 A3030 RMK AO2 T01860071
KCCO 171715Z AUTO 08008KT 040V100 10SM CLR 18/07 A3031 RMK AO2 T01830069
KCCO 171655Z AUTO 09009KT 10SM CLR 18/07 A3032 RMK AO2 T01800071
KCCO 171635Z AUTO 13011G16KT 10SM CLR 18/07 A3032 RMK AO2 T01750071
KCCO 171615Z AUTO 08007G16KT 10SM CLR 17/07 A3033 RMK AO2 T01690066
KCCO 171555Z AUTO 09012G19KT 10SM CLR 17/07 A3034 RMK AO2 T01680070
KCCO 171535Z AUTO 11011G18KT 10SM CLR 16/07 A3034 RMK AO2 T01620067
KCCO 171515Z AUTO 12015G22KT 10SM CLR 16/07 A3034 RMK AO2 T01590070
KCCO 171455Z AUTO 11012G22KT 10SM CLR 15/07 A3034 RMK AO2 T01520065
KCCO 171435Z AUTO 09012G21KT 10SM CLR 15/07 A3033 RMK AO2 T01490067
KCCO 171415Z AUTO 09010G19KT 10SM CLR 15/07 A3032 RMK AO2 T01450069
KCCO 171355Z AUTO 09012G19KT 10SM CLR 14/07 A3032 RMK AO2 T01370067
KCCO 171335Z AUTO 09010G17KT 10SM CLR 13/07 A3032 RMK AO2 T01320068
KCCO 171315Z AUTO 08008G16KT 10SM CLR 12/07 A3031 RMK AO2 T01230068
KCCO 171255Z AUTO 07007KT 10SM CLR 11/07 A3031 RMK AO2 T01130070
KCCO 171235Z AUTO 07007KT 10SM CLR 11/07 A3031 RMK AO2 T01050070
KCCO 171215Z AUTO 06005KT 10SM CLR 10/07 A3030 RMK AO2 T01000070
KCCO 171155Z AUTO 05004KT 10SM CLR 10/07 A3029 RMK AO2 T00960067 10120 20096
KCCO 171135Z AUTO 07005KT 10SM CLR 10/07 A3028 RMK AO2 T00980066
KCCO 171115Z AUTO 07005KT 10SM CLR 10/07 A3028 RMK AO2 T00970066
KCCO 171055Z AUTO 07005KT 10SM CLR 10/07 A3027 RMK AO2 T00980067
KCCO 171035Z AUTO 07005KT 10SM CLR 10/07 A3026 RMK AO2 T01000068
KCCO 171015Z AUTO 06004KT 10SM CLR 10/07 A3026 RMK AO2 T01020066
KCCO 170955Z AUTO 08005KT 10SM CLR 11/07 A3025 RMK AO2 T01050068
KCCO 170935Z AUTO 07005KT 10SM CLR 11/07 A3025 RMK AO2 T01060070
KCCO 170915Z AUTO 07004KT 10SM CLR 11/07 A3024 RMK AO2 T01080072
KCCO 170855Z AUTO 07005KT 10SM CLR 11/07 A3024 RMK AO2 T01120072
KCCO 170835Z AUTO 08006KT 10SM CLR 12/07 A3024 RMK AO2 T01150072
KCCO 170815Z AUTO 08006KT 10SM CLR 12/08 A3023 RMK AO2 T01150075
KCCO 170755Z AUTO 08006KT 10SM CLR 12/08 A3023 RMK AO2 T01170076
KCCO 170735Z AUTO 08006KT 10SM CLR 12/08 A3023 RMK AO2 T01170077
KCCO 170715Z AUTO 06006KT 10SM CLR 12/08 A3023 RMK AO2 T01150080
KCCO 170655Z AUTO 05004KT 10SM CLR 12/08 A3023 RMK AO2 T01150081
KCCO 170635Z AUTO 06004KT 10SM CLR 12/08 A3022 RMK AO2 T01170082
KCCO 170615Z AUTO 05004KT 10SM CLR 12/08 A3022 RMK AO2 T01200083
KCCO 170555Z AUTO 05005KT 10SM CLR 12/09 A3022 RMK AO2 T01200085 10158 20118 402250118
KCCO 170535Z AUTO 04004KT 10SM CLR 12/09 A3022 RMK AO2 T01190085
KCCO 170515Z AUTO 06004KT 10SM CLR 12/09 A3023 RMK AO2 T01210085
KCCO 170455Z AUTO 04003KT 10SM CLR 13/09 A3022 RMK AO2 T01250085
KCCO 170435Z AUTO 04005KT 10SM CLR 13/09 A3022 RMK AO2 T01270085
KCCO 170415Z AUTO 04006KT 10SM CLR 13/09 A3022 RMK AO2 T01300085
KCCO 170355Z AUTO 03006KT 10SM CLR 13/09 A3022 RMK AO2 T01310085
KCCO 170335Z AUTO 04006KT 10SM CLR 13/08 A3021 RMK AO2 T01340084
KCCO 170315Z AUTO 03009KT 10SM CLR 14/08 A3021 RMK AO2 T01360082
KCCO 170255Z AUTO 02009KT 10SM CLR 14/08 A3020 RMK AO2 T01390082
KCCO 170235Z AUTO 03009G15KT 10SM CLR 14/08 A3019 RMK AO2 T01410083
KCCO 170215Z AUTO 02008G14KT 10SM CLR 14/09 A3019 RMK AO2 T01400085
KCCO 170155Z AUTO 02010KT 10SM CLR 15/09 A3019 RMK AO2 T01450085
KCCO 170135Z AUTO 01010G15KT 10SM CLR 15/09 A3017 RMK AO2 T01450086
KCCO 170115Z AUTO 01010KT 10SM CLR 15/09 A3017 RMK AO2 T01480086
KCCO 170055Z AUTO 01010KT 10SM CLR 15/09 A3016 RMK AO2 T01480086
KCCO 170035Z AUTO 36008KT 10SM CLR 15/09 A3016 RMK AO2 T01520088
KCCO 170015Z AUTO 36010KT 10SM CLR 16/09 A3014 RMK AO2 T01550089
KCCO 162355Z AUTO 36010G15KT 10SM CLR 16/09 A3013 RMK AO2 T01580090 10209 20158
KCCO 162335Z AUTO 35008KT 10SM CLR 16/09 A3013 RMK AO2 T01620090
KCCO 162315Z AUTO 35011G16KT 10SM CLR 17/09 A3011 RMK AO2 T01670091
KCCO 162255Z AUTO 36010KT 10SM CLR 17/09 A3011 RMK AO2 T01720087
KCCO 162235Z AUTO 35010G17KT 10SM CLR 18/09 A3011 RMK AO2 T01810088
KCCO 162215Z AUTO 36012G18KT 10SM CLR 19/09 A3010 RMK AO2 T01900090
KCCO 162155Z AUTO 35009KT 10SM CLR 20/10 A3010 RMK AO2 T01960097
KCCO 162135Z AUTO 02012G22KT 10SM CLR 20/09 A3009 RMK AO2 T02000093
KCCO 162115Z AUTO 35015G20KT 10SM CLR 20/10 A3009 RMK AO2 T02040097
KCCO 162055Z AUTO 35018G22KT 10SM CLR 21/09 A3009 RMK AO2 T02050094
KCCO 162035Z AUTO 35015G20KT 10SM CLR 21/10 A3009 RMK AO2 T02050099
KCCO 162015Z AUTO 36013KT 10SM CLR 21/10 A3009 RMK AO2 T02060096
KCCO 161955Z AUTO 01011G19KT 10SM CLR 21/09 A3009 RMK AO2 T02050092
KCCO 161935Z AUTO 36010G18KT 10SM CLR 20/09 A3009 RMK AO2 T02030094
KCCO 161915Z AUTO 35011KT 10SM CLR 21/10 A3009 RMK AO2 T02060099
KCCO 161855Z AUTO 35012KT 10SM CLR 20/11 A3009 RMK AO2 T02000106
KCCO 161835Z AUTO 36010G18KT 10SM CLR 19/11 A3010 RMK AO2 T01910105
KCCO 161815Z AUTO 34013G20KT 10SM CLR 19/11 A3011 RMK AO2 T01910109
KCCO 161755Z AUTO 33013G17KT 10SM CLR 19/11 A3012 RMK AO2 T01920110 10195 20142
KCCO 161735Z AUTO 34012G16KT 310V010 10SM CLR 19/11 A3013 RMK AO2 T01930113
KCCO 161715Z AUTO 35013G17KT 10SM CLR 18/11 A3014 RMK AO2 T01800114
KCCO 161655Z AUTO 36013G16KT 10SM CLR 18/12 A3014 RMK AO2 T01790119
KCCO 161635Z AUTO 34012G16KT 10SM CLR 16/11 A3015 RMK AO2 T01640113
KCCO 161615Z AUTO 34013KT 10SM CLR 16/12 A3015 RMK AO2 T01610118
KCCO 161555Z AUTO 34010G15KT 10SM CLR 16/12 A3015 RMK AO2 T01590119